sensor_id;sensor_type;location;lat;lon;timestamp;P1;durP1;ratioP1;P2;durP2;ratioP2
2680;SDS011;1350;42.134;24.708;2022-12-18T00:02:02;46.80;;;34.95;;
2680;SDS011;1350;42.134;24.708;2022-12-18T00:04:30;48.67;;;34.85;;
2680;SDS011;1350;42.134;24.708;2022-12-18T00:06:57;53.20;;;34.15;;
2680;SDS011;1350;42.134;24.708;2022-12-18T00:09:24;51.40;;;35.70;;
2680;SDS011;1350;42.134;24.708;2022-12-18T00:11:50;48.72;;;34.00;;
2680;SDS011;1350;42.134;24.708;2022-12-18T00:14:17;45.78;;;32.75;;
2680;SDS011;1350;42.134;24.708;2022-12-18T00:16:44;49.47;;;35.72;;
2680;SDS011;1350;42.134;24.708;2022-12-18T00:19:12;46.92;;;34.17;;
2680;SDS011;1350;42.134;24.708;2022-12-18T00:21:43;52.17;;;35.25;;
2680;SDS011;1350;42.134;24.708;2022-12-18T00:24:10;56.60;;;40.10;;
2680;SDS011;1350;42.134;24.708;2022-12-18T00:26:38;46.05;;;33.40;;
2680;SDS011;1350;42.134;24.708;2022-12-18T00:29:06;44.65;;;33.58;;
2680;SDS011;1350;42.134;24.708;2022-12-18T00:31:34;47.60;;;33.97;;
2680;SDS011;1350;42.134;24.708;2022-12-18T00:34:01;50.45;;;35.00;;
2680;SDS011;1350;42.134;24.708;2022-12-18T00:36:28;47.22;;;32.17;;
2680;SDS011;1350;42.134;24.708;2022-12-18T00:39:00;51.95;;;33.50;;
2680;SDS011;1350;42.134;24.708;2022-12-18T00:41:28;49.22;;;35.22;;
2680;SDS011;1350;42.134;24.708;2022-12-18T00:44:13;44.25;;;33.88;;
2680;SDS011;1350;42.134;24.708;2022-12-18T00:46:41;50.22;;;34.90;;
2680;SDS011;1350;42.134;24.708;2022-12-18T00:49:12;48.88;;;35.97;;
2680;SDS011;1350;42.134;24.708;2022-12-18T00:51:39;51.25;;;34.63;;
2680;SDS011;1350;42.134;24.708;2022-12-18T00:54:07;50.65;;;34.30;;
2680;SDS011;1350;42.134;24.708;2022-12-18T00:56:35;45.83;;;34.47;;
2680;SDS011;1350;42.134;24.708;2022-12-18T00:59:02;44.45;;;32.58;;
2680;SDS011;1350;42.134;24.708;2022-12-18T01:01:29;45.55;;;32.67;;
2680;SDS011;1350;42.134;24.708;2022-12-18T01:03:55;49.53;;;33.15;;
2680;SDS011;1350;42.134;24.708;2022-12-18T01:06:22;46.67;;;32.90;;
2680;SDS011;1350;42.134;24.708;2022-12-18T01:08:49;46.45;;;34.53;;
2680;SDS011;1350;42.134;24.708;2022-12-18T01:11:18;42.70;;;31.70;;
2680;SDS011;1350;42.134;24.708;2022-12-18T01:13:46;43.53;;;32.28;;
2680;SDS011;1350;42.134;24.708;2022-12-18T01:16:13;46.05;;;34.63;;
2680;SDS011;1350;42.134;24.708;2022-12-18T01:18:41;49.15;;;32.85;;
2680;SDS011;1350;42.134;24.708;2022-12-18T01:21:08;44.22;;;32.90;;
2680;SDS011;1350;42.134;24.708;2022-12-18T01:23:35;45.47;;;32.10;;
2680;SDS011;1350;42.134;24.708;2022-12-18T01:26:06;44.05;;;32.13;;
2680;SDS011;1350;42.134;24.708;2022-12-18T01:28:35;49.08;;;32.78;;
2680;SDS011;1350;42.134;24.708;2022-12-18T01:31:09;54.00;;;34.42;;
2680;SDS011;1350;42.134;24.708;2022-12-18T01:33:40;52.78;;;34.20;;
2680;SDS011;1350;42.134;24.708;2022-12-18T01:36:07;48.90;;;32.88;;
2680;SDS011;1350;42.134;24.708;2022-12-18T01:38:34;49.78;;;33.58;;
2680;SDS011;1350;42.134;24.708;2022-12-18T01:41:01;42.47;;;30.02;;
2680;SDS011;1350;42.134;24.708;2022-12-18T01:43:42;49.15;;;32.38;;
2680;SDS011;1350;42.134;24.708;2022-12-18T01:46:10;43.80;;;31.05;;
2680;SDS011;1350;42.134;24.708;2022-12-18T01:48:37;43.30;;;31.02;;
2680;SDS011;1350;42.134;24.708;2022-12-18T01:51:06;46.17;;;30.67;;
2680;SDS011;1350;42.134;24.708;2022-12-18T01:53:35;43.28;;;30.00;;
2680;SDS011;1350;42.134;24.708;2022-12-18T01:56:03;46.58;;;31.73;;
2680;SDS011;1350;42.134;24.708;2022-12-18T01:58:32;41.47;;;27.98;;
2680;SDS011;1350;42.134;24.708;2022-12-18T02:01:07;42.55;;;30.52;;
2680;SDS011;1350;42.134;24.708;2022-12-18T02:03:34;37.95;;;29.20;;
2680;SDS011;1350;42.134;24.708;2022-12-18T02:06:03;47.33;;;29.00;;
2680;SDS011;1350;42.134;24.708;2022-12-18T02:08:37;46.63;;;27.35;;
2680;SDS011;1350;42.134;24.708;2022-12-18T02:11:10;40.92;;;29.00;;
2680;SDS011;1350;42.134;24.708;2022-12-18T02:13:45;44.47;;;29.30;;
2680;SDS011;1350;42.134;24.708;2022-12-18T02:16:21;38.15;;;27.60;;
2680;SDS011;1350;42.134;24.708;2022-12-18T02:18:56;37.03;;;26.90;;
2680;SDS011;1350;42.134;24.708;2022-12-18T02:21:32;40.45;;;27.15;;
2680;SDS011;1350;42.134;24.708;2022-12-18T02:24:15;37.35;;;27.08;;
2680;SDS011;1350;42.134;24.708;2022-12-18T02:26:53;39.17;;;26.85;;
2680;SDS011;1350;42.134;24.708;2022-12-18T02:29:24;36.53;;;25.50;;
2680;SDS011;1350;42.134;24.708;2022-12-18T02:31:55;36.10;;;25.60;;
2680;SDS011;1350;42.134;24.708;2022-12-18T02:34:25;39.30;;;26.55;;
2680;SDS011;1350;42.134;24.708;2022-12-18T02:36:56;33.13;;;23.95;;
2680;SDS011;1350;42.134;24.708;2022-12-18T02:39:25;32.88;;;22.83;;
2680;SDS011;1350;42.134;24.708;2022-12-18T02:41:56;30.38;;;21.90;;
2680;SDS011;1350;42.134;24.708;2022-12-18T02:44:24;28.67;;;21.25;;
2680;SDS011;1350;42.134;24.708;2022-12-18T02:46:51;39.35;;;23.92;;
2680;SDS011;1350;42.134;24.708;2022-12-18T02:49:24;38.47;;;22.55;;
2680;SDS011;1350;42.134;24.708;2022-12-18T02:52:01;36.95;;;23.92;;
2680;SDS011;1350;42.134;24.708;2022-12-18T02:54:50;28.90;;;21.45;;
2680;SDS011;1350;42.134;24.708;2022-12-18T02:57:24;32.03;;;22.20;;
2680;SDS011;1350;42.134;24.708;2022-12-18T03:00:00;26.63;;;20.30;;
2680;SDS011;1350;42.134;24.708;2022-12-18T03:02:32;35.58;;;21.05;;
2680;SDS011;1350;42.134;24.708;2022-12-18T03:05:04;35.53;;;21.48;;
2680;SDS011;1350;42.134;24.708;2022-12-18T03:07:38;26.95;;;20.67;;
2680;SDS011;1350;42.134;24.708;2022-12-18T03:10:09;25.98;;;18.23;;
2680;SDS011;1350;42.134;24.708;2022-12-18T03:12:42;27.40;;;19.85;;
2680;SDS011;1350;42.134;24.708;2022-12-18T03:15:13;26.70;;;19.42;;
2680;SDS011;1350;42.134;24.708;2022-12-18T03:17:46;32.58;;;19.85;;
2680;SDS011;1350;42.134;24.708;2022-12-18T03:20:18;27.55;;;20.85;;
2680;SDS011;1350;42.134;24.708;2022-12-18T03:22:49;32.03;;;19.40;;
2680;SDS011;1350;42.134;24.708;2022-12-18T03:25:19;29.55;;;20.00;;
2680;SDS011;1350;42.134;24.708;2022-12-18T03:27:49;27.40;;;18.42;;
2680;SDS011;1350;42.134;24.708;2022-12-18T03:30:20;27.13;;;20.33;;
2680;SDS011;1350;42.134;24.708;2022-12-18T03:32:47;30.05;;;18.80;;
2680;SDS011;1350;42.134;24.708;2022-12-18T03:35:18;29.92;;;19.15;;
2680;SDS011;1350;42.134;24.708;2022-12-18T03:37:48;34.05;;;19.70;;
2680;SDS011;1350;42.134;24.708;2022-12-18T03:40:15;23.95;;;17.17;;
2680;SDS011;1350;42.134;24.708;2022-12-18T03:42:43;26.15;;;17.77;;
2680;SDS011;1350;42.134;24.708;2022-12-18T03:45:19;30.73;;;17.67;;
2680;SDS011;1350;42.134;24.708;2022-12-18T03:47:52;24.05;;;15.50;;
2680;SDS011;1350;42.134;24.708;2022-12-18T03:50:27;27.38;;;18.70;;
2680;SDS011;1350;42.134;24.708;2022-12-18T03:53:04;25.98;;;17.40;;
2680;SDS011;1350;42.134;24.708;2022-12-18T03:55:39;24.13;;;17.75;;
2680;SDS011;1350;42.134;24.708;2022-12-18T03:58:08;22.08;;;16.15;;
2680;SDS011;1350;42.134;24.708;2022-12-18T04:00:42;24.65;;;15.73;;
2680;SDS011;1350;42.134;24.708;2022-12-18T04:03:09;26.08;;;16.48;;
2680;SDS011;1350;42.134;24.708;2022-12-18T04:05:38;22.95;;;15.00;;
2680;SDS011;1350;42.134;24.708;2022-12-18T04:08:06;24.25;;;14.43;;
2680;SDS011;1350;42.134;24.708;2022-12-18T04:10:33;22.70;;;16.10;;
2680;SDS011;1350;42.134;24.708;2022-12-18T04:13:00;21.40;;;14.93;;
2680;SDS011;1350;42.134;24.708;2022-12-18T04:15:26;23.08;;;15.15;;
2680;SDS011;1350;42.134;24.708;2022-12-18T04:17:54;23.85;;;15.73;;
2680;SDS011;1350;42.134;24.708;2022-12-18T04:20:21;27.80;;;16.02;;
2680;SDS011;1350;42.134;24.708;2022-12-18T04:22:48;23.67;;;14.50;;
2680;SDS011;1350;42.134;24.708;2022-12-18T04:25:15;25.33;;;13.38;;
2680;SDS011;1350;42.134;24.708;2022-12-18T04:27:41;20.40;;;13.35;;
2680;SDS011;1350;42.134;24.708;2022-12-18T04:30:08;17.90;;;12.02;;
2680;SDS011;1350;42.134;24.708;2022-12-18T04:32:36;18.55;;;12.93;;
2680;SDS011;1350;42.134;24.708;2022-12-18T04:35:04;15.65;;;10.25;;
2680;SDS011;1350;42.134;24.708;2022-12-18T04:37:35;15.95;;;10.20;;
2680;SDS011;1350;42.134;24.708;2022-12-18T04:40:02;14.15;;;8.45;;
2680;SDS011;1350;42.134;24.708;2022-12-18T04:42:29;16.80;;;11.45;;
2680;SDS011;1350;42.134;24.708;2022-12-18T04:44:56;14.35;;;9.63;;
2680;SDS011;1350;42.134;24.708;2022-12-18T04:47:23;15.95;;;11.30;;
2680;SDS011;1350;42.134;24.708;2022-12-18T04:49:50;14.00;;;8.52;;
2680;SDS011;1350;42.134;24.708;2022-12-18T04:52:18;13.00;;;8.98;;
2680;SDS011;1350;42.134;24.708;2022-12-18T04:54:44;16.33;;;9.95;;
2680;SDS011;1350;42.134;24.708;2022-12-18T04:57:11;11.63;;;8.85;;
2680;SDS011;1350;42.134;24.708;2022-12-18T04:59:38;13.00;;;8.35;;
2680;SDS011;1350;42.134;24.708;2022-12-18T05:02:05;12.18;;;7.80;;
2680;SDS011;1350;42.134;24.708;2022-12-18T05:04:31;12.05;;;7.15;;
2680;SDS011;1350;42.134;24.708;2022-12-18T05:06:58;13.57;;;7.95;;
2680;SDS011;1350;42.134;24.708;2022-12-18T05:09:26;11.63;;;7.35;;
2680;SDS011;1350;42.134;24.708;2022-12-18T05:11:53;10.85;;;6.68;;
2680;SDS011;1350;42.134;24.708;2022-12-18T05:14:19;10.77;;;7.53;;
2680;SDS011;1350;42.134;24.708;2022-12-18T05:16:46;12.27;;;7.50;;
2680;SDS011;1350;42.134;24.708;2022-12-18T05:19:13;13.25;;;7.55;;
2680;SDS011;1350;42.134;24.708;2022-12-18T05:21:40;14.38;;;8.13;;
2680;SDS011;1350;42.134;24.708;2022-12-18T05:24:06;12.73;;;8.50;;
2680;SDS011;1350;42.134;24.708;2022-12-18T05:26:35;13.40;;;9.00;;
2680;SDS011;1350;42.134;24.708;2022-12-18T05:29:02;13.32;;;8.15;;
2680;SDS011;1350;42.134;24.708;2022-12-18T05:31:29;12.18;;;8.85;;
2680;SDS011;1350;42.134;24.708;2022-12-18T05:33:55;12.55;;;8.68;;
2680;SDS011;1350;42.134;24.708;2022-12-18T05:36:22;14.65;;;9.23;;
2680;SDS011;1350;42.134;24.708;2022-12-18T05:38:49;14.00;;;8.85;;
2680;SDS011;1350;42.134;24.708;2022-12-18T05:41:15;15.02;;;9.07;;
2680;SDS011;1350;42.134;24.708;2022-12-18T05:43:43;13.52;;;9.75;;
2680;SDS011;1350;42.134;24.708;2022-12-18T05:46:11;15.95;;;8.05;;
2680;SDS011;1350;42.134;24.708;2022-12-18T05:48:40;11.93;;;8.60;;
2680;SDS011;1350;42.134;24.708;2022-12-18T05:51:07;13.27;;;8.57;;
2680;SDS011;1350;42.134;24.708;2022-12-18T05:53:36;14.65;;;8.90;;
2680;SDS011;1350;42.134;24.708;2022-12-18T05:56:04;11.73;;;7.65;;
2680;SDS011;1350;42.134;24.708;2022-12-18T05:58:32;13.40;;;7.95;;
2680;SDS011;1350;42.134;24.708;2022-12-18T06:01:06;20.95;;;8.90;;
2680;SDS011;1350;42.134;24.708;2022-12-18T06:03:35;12.60;;;8.40;;
2680;SDS011;1350;42.134;24.708;2022-12-18T06:06:02;14.30;;;9.85;;
2680;SDS011;1350;42.134;24.708;2022-12-18T06:08:30;12.98;;;7.95;;
2680;SDS011;1350;42.134;24.708;2022-12-18T06:10:57;15.85;;;8.68;;
2680;SDS011;1350;42.134;24.708;2022-12-18T06:13:24;10.32;;;7.00;;
2680;SDS011;1350;42.134;24.708;2022-12-18T06:15:50;11.68;;;6.95;;
2680;SDS011;1350;42.134;24.708;2022-12-18T06:18:18;13.32;;;8.65;;
2680;SDS011;1350;42.134;24.708;2022-12-18T06:20:51;11.38;;;6.13;;
2680;SDS011;1350;42.134;24.708;2022-12-18T06:23:21;13.68;;;7.45;;
2680;SDS011;1350;42.134;24.708;2022-12-18T06:25:47;14.15;;;8.75;;
2680;SDS011;1350;42.134;24.708;2022-12-18T06:28:14;12.45;;;7.47;;
2680;SDS011;1350;42.134;24.708;2022-12-18T06:30:42;10.90;;;6.95;;
2680;SDS011;1350;42.134;24.708;2022-12-18T06:33:10;10.55;;;7.57;;
2680;SDS011;1350;42.134;24.708;2022-12-18T06:35:38;11.90;;;7.22;;
2680;SDS011;1350;42.134;24.708;2022-12-18T06:38:04;11.23;;;7.43;;
2680;SDS011;1350;42.134;24.708;2022-12-18T06:40:31;13.40;;;7.57;;
2680;SDS011;1350;42.134;24.708;2022-12-18T06:42:58;10.68;;;6.90;;
2680;SDS011;1350;42.134;24.708;2022-12-18T06:45:25;12.27;;;7.00;;
2680;SDS011;1350;42.134;24.708;2022-12-18T06:47:51;14.30;;;7.82;;
2680;SDS011;1350;42.134;24.708;2022-12-18T06:50:18;11.18;;;6.50;;
2680;SDS011;1350;42.134;24.708;2022-12-18T06:52:46;10.48;;;6.75;;
2680;SDS011;1350;42.134;24.708;2022-12-18T06:55:13;11.23;;;7.07;;
2680;SDS011;1350;42.134;24.708;2022-12-18T06:57:39;11.80;;;6.95;;
2680;SDS011;1350;42.134;24.708;2022-12-18T07:00:06;10.27;;;6.75;;
2680;SDS011;1350;42.134;24.708;2022-12-18T07:02:34;10.57;;;6.47;;
2680;SDS011;1350;42.134;24.708;2022-12-18T07:05:00;13.48;;;7.28;;
2680;SDS011;1350;42.134;24.708;2022-12-18T07:07:27;14.00;;;8.60;;
2680;SDS011;1350;42.134;24.708;2022-12-18T07:09:56;16.90;;;9.88;;
2680;SDS011;1350;42.134;24.708;2022-12-18T07:12:22;11.40;;;8.20;;
2680;SDS011;1350;42.134;24.708;2022-12-18T07:14:49;10.55;;;7.40;;
2680;SDS011;1350;42.134;24.708;2022-12-18T07:17:16;11.57;;;7.28;;
2680;SDS011;1350;42.134;24.708;2022-12-18T07:19:42;13.05;;;8.25;;
2680;SDS011;1350;42.134;24.708;2022-12-18T07:22:09;12.98;;;8.30;;
2680;SDS011;1350;42.134;24.708;2022-12-18T07:24:36;12.60;;;7.50;;
2680;SDS011;1350;42.134;24.708;2022-12-18T07:27:04;11.38;;;6.88;;
2680;SDS011;1350;42.134;24.708;2022-12-18T07:29:31;10.55;;;7.40;;
2680;SDS011;1350;42.134;24.708;2022-12-18T07:31:58;11.38;;;7.35;;
2680;SDS011;1350;42.134;24.708;2022-12-18T07:34:24;12.98;;;7.40;;
2680;SDS011;1350;42.134;24.708;2022-12-18T07:36:51;10.13;;;6.80;;
2680;SDS011;1350;42.134;24.708;2022-12-18T07:39:18;11.88;;;6.57;;
2680;SDS011;1350;42.134;24.708;2022-12-18T07:41:45;10.82;;;7.28;;
2680;SDS011;1350;42.134;24.708;2022-12-18T07:44:33;10.90;;;7.07;;
2680;SDS011;1350;42.134;24.708;2022-12-18T07:47:00;12.73;;;7.90;;
2680;SDS011;1350;42.134;24.708;2022-12-18T07:49:27;16.17;;;9.27;;
2680;SDS011;1350;42.134;24.708;2022-12-18T07:51:54;15.05;;;8.27;;
2680;SDS011;1350;42.134;24.708;2022-12-18T07:54:21;12.90;;;7.85;;
2680;SDS011;1350;42.134;24.708;2022-12-18T07:56:48;13.52;;;8.23;;
2680;SDS011;1350;42.134;24.708;2022-12-18T07:59:15;12.35;;;8.25;;
2680;SDS011;1350;42.134;24.708;2022-12-18T08:01:43;10.98;;;6.25;;
2680;SDS011;1350;42.134;24.708;2022-12-18T08:04:09;13.25;;;7.90;;
2680;SDS011;1350;42.134;24.708;2022-12-18T08:06:36;13.75;;;8.48;;
2680;SDS011;1350;42.134;24.708;2022-12-18T08:09:03;14.98;;;8.10;;
2680;SDS011;1350;42.134;24.708;2022-12-18T08:11:30;10.20;;;7.13;;
2680;SDS011;1350;42.134;24.708;2022-12-18T08:13:57;13.52;;;8.77;;
2680;SDS011;1350;42.134;24.708;2022-12-18T08:16:24;15.32;;;7.85;;
2680;SDS011;1350;42.134;24.708;2022-12-18T08:18:53;10.50;;;7.10;;
2680;SDS011;1350;42.134;24.708;2022-12-18T08:21:21;12.75;;;6.90;;
2680;SDS011;1350;42.134;24.708;2022-12-18T08:23:49;13.68;;;9.05;;
2680;SDS011;1350;42.134;24.708;2022-12-18T08:26:16;13.80;;;7.78;;
2680;SDS011;1350;42.134;24.708;2022-12-18T08:28:43;15.65;;;7.60;;
2680;SDS011;1350;42.134;24.708;2022-12-18T08:31:10;16.02;;;7.10;;
2680;SDS011;1350;42.134;24.708;2022-12-18T08:33:37;11.20;;;6.97;;
2680;SDS011;1350;42.134;24.708;2022-12-18T08:38:28;13.35;;;8.88;;
